Risoy — LG4516 — position and weather

sailwx.info

Track history (hours):
 
Tides and Currents Weather Stations Pressure Air Temp Water Temp Dewpoint Dewpoint Depression Visibility Wind Speed Wind Dir Waves Ship Positions

Risoy

Last reported at 2017-Jun-29 15:59 UTC. Time now 2017-Jun-29 16:09 UTC.
Position N 58°52' E 009°25'.

Length 14 m.

Type: Fishing. MMSI: 257308740.

Date/timePositionNaut miles runAvg speedWind from/ knotsBaromVisibWave heightAir tempDewpointWater temp
2017-Jun-29 15:59N 58°52' E 009°25'0 0.0
2017-Jun-29 15:05N 58°52' E 009°25'0 0.0
2017-Jun-29 14:59N 58°52' E 009°25'0 0.0
2017-Jun-29 14:05N 58°52' E 009°25'0 0.0
2017-Jun-29 13:29N 58°52' E 009°25'0 0.0
2017-Jun-29 12:59N 58°52' E 009°25'0 0.0
2017-Jun-29 12:29N 58°52' E 009°25'0 0.0
2017-Jun-29 10:47N 58°52' E 009°25'0 0.0
2017-Jun-29 10:11N 58°52' E 009°25'0 0.0
2017-Jun-29 09:59N 58°52' E 009°25'0 0.0
2017-Jun-29 09:29N 58°52' E 009°25'0 0.0
2017-Jun-29 08:59N 58°52' E 009°25'0 0.0
2017-Jun-29 08:23N 58°52' E 009°25'0 0.0
2017-Jun-29 07:53N 58°52' E 009°25'0 0.0
2017-Jun-29 07:23N 58°52' E 009°25'0 0.0
2017-Jun-29 06:59N 58°52' E 009°25'0 0.0
2017-Jun-29 06:29N 58°52' E 009°25'0 0.0
2017-Jun-29 05:57N 58°52' E 009°25'0 0.0
2017-Jun-29 05:15N 58°52' E 009°25'0 0.0
2017-Jun-29 04:57N 58°52' E 009°25'0 0.0
2017-Jun-29 04:27N 58°52' E 009°25'0 0.0
2017-Jun-29 03:51N 58°52' E 009°25'0 0.0
2017-Jun-29 03:27N 58°52' E 009°25'0 0.0
2017-Jun-29 03:00N 58°52' E 009°25'0 0.0
2017-Jun-29 02:27N 58°52' E 009°25'0 0.0
2017-Jun-29 01:57N 58°52' E 009°25'0 0.0
2017-Jun-29 01:27N 58°52' E 009°25'0 0.0
2017-Jun-29 00:51N 58°52' E 009°25'0 0.0
2017-Jun-29 00:30N 58°52' E 009°25'0 0.0
2017-Jun-28 23:57N 58°52' E 009°25'0 0.0
2017-Jun-28 23:27N 58°52' E 009°25'0 0.0
2017-Jun-28 22:51N 58°52' E 009°25'0 0.0
2017-Jun-28 22:27N 58°52' E 009°25'0 0.0
2017-Jun-28 21:57N 58°52' E 009°25'0 0.0
2017-Jun-28 21:27N 58°52' E 009°25'0 0.0
2017-Jun-28 20:57N 58°52' E 009°25'0 0.0
2017-Jun-28 20:21N 58°52' E 009°25'0 0.0
2017-Jun-28 19:57N 58°52' E 009°25'0 0.0
2017-Jun-28 19:21N 58°52' E 009°25'0 0.0
2017-Jun-28 18:57N 58°52' E 009°25'0 0.0
2017-Jun-28 18:27N 58°52' E 009°25'0 0.0
2017-Jun-28 17:57N 58°52' E 009°25'0 0.0
2017-Jun-28 17:30N 58°52' E 009°25'0 0.0
2017-Jun-28 16:57N 58°52' E 009°25'0 0.0
2017-Jun-28 16:30N 58°52' E 009°25'0 0.0
2017-Jun-28 15:54N 58°52' E 009°25'0 0.0
2017-Jun-28 15:27N 58°52' E 009°25'0 0.0
2017-Jun-28 14:54N 58°52' E 009°25'0 0.0
2017-Jun-28 13:57N 58°52' E 009°25'1 1.3
2017-Jun-28 13:29N 58°52' E 009°26'4 8.0
2017-Jun-28 13:00N 58°49' E 009°31'4 9.1
2017-Jun-28 12:31N 58°49' E 009°40'3 6.4
2017-Jun-28 12:00N 58°49' E 009°46'0 0.6
2017-Jun-28 11:30N 58°49' E 009°47'0 0.8
2017-Jun-28 11:00N 58°49' E 009°47'1 1.3
2017-Jun-28 10:30N 58°50' E 009°48'1 1.5
2017-Jun-28 09:59N 58°50' E 009°49'0 0.6
2017-Jun-28 09:28N 58°51' E 009°48'1 1.7
2017-Jun-28 09:00N 58°50' E 009°48'1 1.9
2017-Jun-28 08:29N 58°49' E 009°47'1 1.9
2017-Jun-28 08:00N 58°48' E 009°46'1 1.7
2017-Jun-28 07:29N 58°48' E 009°44'1 1.7
2017-Jun-28 07:00N 58°47' E 009°44'1 1.7
2017-Jun-28 06:29N 58°46' E 009°43'1 1.6
2017-Jun-28 05:58N 58°45' E 009°43'1 1.5
2017-Jun-28 05:30N 58°45' E 009°43'1 1.6
2017-Jun-28 05:00N 58°44' E 009°42'1 1.6
2017-Jun-28 04:28N 58°43' E 009°41'1 1.5
2017-Jun-28 03:58N 58°43' E 009°40'1 1.5
2017-Jun-28 03:28N 58°42' E 009°39'1 1.6
2017-Jun-28 02:59N 58°42' E 009°38'1 2.1
2017-Jun-28 02:29N 58°41' E 009°36'2 4.8
2017-Jun-28 01:59N 58°43' E 009°34'4 7.6
2017-Jun-28 01:31N 58°46' E 009°31'4 8.0
2017-Jun-28 01:00N 58°50' E 009°28'3 3.5
2017-Jun-28 00:18N 58°52' E 009°25'0 0.0
2017-Jun-28 00:00N 58°52' E 009°25'0 0.0
2017-Jun-27 23:30N 58°52' E 009°25'0 0.0
2017-Jun-27 23:00N 58°52' E 009°25'0 0.0
2017-Jun-27 22:30N 58°52' E 009°25'0 0.0
2017-Jun-27 21:57N 58°52' E 009°25'0 0.0
2017-Jun-27 21:30N 58°52' E 009°25'0 0.0
2017-Jun-27 20:54N 58°52' E 009°25'0 0.0
2017-Jun-27 20:27N 58°52' E 009°25'0 0.0
2017-Jun-27 20:00N 58°52' E 009°25'0 0.0
2017-Jun-27 19:30N 58°52' E 009°25'0 0.0
2017-Jun-27 18:57N 58°52' E 009°25'0 0.0
2017-Jun-27 18:30N 58°52' E 009°25'0 0.0
2017-Jun-27 17:54N 58°52' E 009°25'0 0.0
2017-Jun-27 17:30N 58°52' E 009°25'0 0.0
2017-Jun-27 16:54N 58°52' E 009°25'0 0.0
2017-Jun-27 16:24N 58°52' E 009°25'0 0.0
2017-Jun-27 16:00N 58°52' E 009°25'0 0.0
2017-Jun-27 15:30N 58°52' E 009°25'0 0.0
2017-Jun-27 15:00N 58°52' E 009°25'0 0.0
2017-Jun-27 13:26N 58°52' E 009°25'3 7.6
2017-Jun-27 13:00N 58°50' E 009°29'4 8.2
2017-Jun-27 12:30N 58°47' E 009°35'4 8.2
2017-Jun-27 11:59N 58°44' E 009°42'1 1.2
2017-Jun-27 11:28N 58°45' E 009°43'0 0.6
2017-Jun-27 11:00N 58°45' E 009°43'10 0.3
2017-Jun-26 04:37N 58°51' E 009°27'0 2.4
2017-Jun-26 04:30N 58°51' E 009°26'1 2.2
2017-Jun-26 03:55N 58°52' E 009°25'0 0.0
2017-Jun-26 03:19N 58°52' E 009°25'0 0.0
2017-Jun-26 02:55N 58°52' E 009°25'0 0.0
2017-Jun-26 02:25N 58°52' E 009°25'0 0.0
2017-Jun-26 01:55N 58°52' E 009°25'0 0.0
2017-Jun-26 01:19N 58°52' E 009°25'0 0.0
2017-Jun-26 00:55N 58°52' E 009°25'0 0.0
2017-Jun-26 00:25N 58°52' E 009°25'0 0.0
2017-Jun-25 23:55N 58°52' E 009°25'0 0.0
2017-Jun-25 23:25N 58°52' E 009°25'0 0.0
2017-Jun-25 22:55N 58°52' E 009°25'0 0.0
2017-Jun-25 22:19N 58°52' E 009°25'0 0.0
2017-Jun-25 21:55N 58°52' E 009°25'0 0.0
2017-Jun-25 21:25N 58°52' E 009°25'0 0.0
2017-Jun-25 20:55N 58°52' E 009°25'0 0.0
2017-Jun-25 20:19N 58°52' E 009°25'0 0.0
2017-Jun-25 19:55N 58°52' E 009°25'0 0.0
2017-Jun-25 19:07N 58°52' E 009°25'0 0.0
2017-Jun-25 18:55N 58°52' E 009°25'0 0.0
2017-Jun-25 18:25N 58°52' E 009°25'0 0.0
2017-Jun-25 17:52N 58°52' E 009°25'0 0.0
2017-Jun-25 17:25N 58°52' E 009°25'0 0.0
2017-Jun-25 16:55N 58°52' E 009°25'0 0.0
2017-Jun-25 16:13N 58°52' E 009°25'0 0.0
2017-Jun-25 15:55N 58°52' E 009°25'0 0.0
2017-Jun-25 15:25N 58°52' E 009°25'0 0.0
2017-Jun-25 14:55N 58°52' E 009°25'0 0.0
2017-Jun-25 13:55N 58°52' E 009°25'0 0.0
2017-Jun-25 13:28N 58°52' E 009°25'0 0.0
2017-Jun-25 12:55N 58°52' E 009°25'0 0.0
2017-Jun-25 12:10N 58°52' E 009°25'0 0.0
2017-Jun-25 11:49N 58°52' E 009°25'0 0.0
2017-Jun-25 11:25N 58°52' E 009°25'0 0.0
2017-Jun-25 10:55N 58°52' E 009°25'0 0.0
2017-Jun-25 10:25N 58°52' E 009°25'0 0.0
2017-Jun-25 09:55N 58°52' E 009°25'0 0.0
2017-Jun-25 09:25N 58°52' E 009°25'0 0.0
2017-Jun-25 08:55N 58°52' E 009°25'0 0.0
2017-Jun-25 08:25N 58°52' E 009°25'0 0.0
2017-Jun-25 07:55N 58°52' E 009°25'0 0.0
2017-Jun-25 07:19N 58°52' E 009°25'0 0.0
2017-Jun-25 06:55N 58°52' E 009°25'0 0.0
2017-Jun-25 06:25N 58°52' E 009°25'0 0.0
2017-Jun-25 05:55N 58°52' E 009°25'0 0.0
2017-Jun-25 05:25N 58°52' E 009°25'0 0.0
2017-Jun-25 04:55N 58°52' E 009°25'0 0.0
2017-Jun-25 04:25N 58°52' E 009°25'0 0.0
2017-Jun-25 03:49N 58°52' E 009°25'0 0.0
2017-Jun-25 03:25N 58°52' E 009°25'0 0.0
2017-Jun-25 02:49N 58°52' E 009°25'0 0.0
2017-Jun-25 02:25N 58°52' E 009°25'0 0.0
2017-Jun-25 01:55N 58°52' E 009°25'0 0.0
2017-Jun-25 01:25N 58°52' E 009°25'0 0.0
2017-Jun-25 00:49N 58°52' E 009°25'0 0.0
2017-Jun-25 00:25N 58°52' E 009°25'0 0.0
2017-Jun-24 23:55N 58°52' E 009°25'0 0.0
2017-Jun-24 23:25N 58°52' E 009°25'0 0.0
2017-Jun-24 22:55N 58°52' E 009°25'0 0.0
2017-Jun-24 21:43N 58°52' E 009°25'0 0.0
2017-Jun-24 21:25N 58°52' E 009°25'0 0.0
2017-Jun-24 20:58N 58°52' E 009°25'0 0.0
2017-Jun-24 20:28N 58°52' E 009°25'0 0.0
2017-Jun-24 19:58N 58°52' E 009°25'0 0.0
2017-Jun-24 19:28N 58°52' E 009°25'0 0.0
2017-Jun-24 18:58N 58°52' E 009°25'0 0.0
2017-Jun-24 18:25N 58°52' E 009°25'0 0.0
2017-Jun-24 17:58N 58°52' E 009°25'0 0.0
2017-Jun-24 17:28N 58°52' E 009°25'0 0.0
2017-Jun-24 16:58N 58°52' E 009°25'0 0.0
2017-Jun-24 16:28N 58°52' E 009°25'0 0.0
2017-Jun-24 15:58N 58°52' E 009°25'0 0.0
2017-Jun-24 15:28N 58°52' E 009°25'0 0.0
2017-Jun-24 14:55N 58°52' E 009°25'0 0.0
2017-Jun-24 13:55N 58°52' E 009°25'0 0.0
2017-Jun-24 13:28N 58°52' E 009°25'0 0.0
2017-Jun-24 12:55N 58°52' E 009°25'0 0.0
2017-Jun-24 12:28N 58°52' E 009°25'0 0.0
2017-Jun-24 11:55N 58°52' E 009°25'0 0.0
2017-Jun-24 11:25N 58°52' E 009°25'0 0.0
2017-Jun-24 10:58N 58°52' E 009°25'0 0.0
2017-Jun-24 10:28N 58°52' E 009°25'0 0.0
2017-Jun-24 09:55N 58°52' E 009°25'0 0.0
2017-Jun-24 09:25N 58°52' E 009°25'0 0.0
2017-Jun-24 08:49N 58°52' E 009°25'0 0.0
2017-Jun-24 08:25N 58°52' E 009°25'0 0.0
2017-Jun-24 07:55N 58°52' E 009°25'0 0.0
2017-Jun-24 07:25N 58°52' E 009°25'0 0.0
2017-Jun-24 06:55N 58°52' E 009°25'0 0.0
2017-Jun-24 06:19N 58°52' E 009°25'0 0.0
2017-Jun-24 05:55N 58°52' E 009°25'0 0.0
2017-Jun-24 05:25N 58°52' E 009°25'0 0.0
2017-Jun-24 04:49N 58°52' E 009°25'0 0.0
2017-Jun-24 04:25N 58°52' E 009°25'0 0.0
2017-Jun-24 03:49N 58°52' E 009°25'0 0.0
2017-Jun-24 03:25N 58°52' E 009°25'0 0.0
2017-Jun-24 02:55N 58°52' E 009°25'0 0.0
2017-Jun-24 02:25N 58°52' E 009°25'0 0.0
2017-Jun-24 01:55N 58°52' E 009°25'0 0.0
2017-Jun-24 01:25N 58°52' E 009°25'0 0.0
2017-Jun-24 00:55N 58°52' E 009°25'0 0.0
2017-Jun-24 00:25N 58°52' E 009°25'0 0.0
2017-Jun-23 23:55N 58°52' E 009°25'0 0.0
2017-Jun-23 23:25N 58°52' E 009°25'0 0.0
2017-Jun-23 22:37N 58°52' E 009°25'0 0.0
2017-Jun-23 22:25N 58°52' E 009°25'0 0.0
2017-Jun-23 21:55N 58°52' E 009°25'0 0.0
2017-Jun-23 21:25N 58°52' E 009°25'0 0.0
2017-Jun-23 20:55N 58°52' E 009°25'0 0.0
2017-Jun-23 20:25N 58°52' E 009°25'0 0.0
2017-Jun-23 19:37N 58°52' E 009°25'0 0.0
2017-Jun-23 19:25N 58°52' E 009°25'0 0.0
2017-Jun-23 18:55N 58°52' E 009°25'0 0.0
2017-Jun-23 18:25N 58°52' E 009°25'0 0.0
2017-Jun-23 17:55N 58°52' E 009°25'0 0.0
2017-Jun-23 17:25N 58°52' E 009°25'0 0.0
2017-Jun-23 16:58N 58°52' E 009°25'0 0.0
2017-Jun-23 16:28N 58°52' E 009°25'0 0.0
2017-Jun-23 15:49N 58°52' E 009°25'0 0.0
2017-Jun-23 15:07N 58°52' E 009°25'0 0.0
2017-Jun-23 14:55N 58°52' E 009°25'0 0.0
2017-Jun-23 14:25N 58°52' E 009°25'0 0.0
2017-Jun-23 13:19N 58°52' E 009°25'0 0.0
2017-Jun-23 12:55N 58°52' E 009°25'0 0.0
2017-Jun-23 12:19N 58°52' E 009°25'0 0.0
2017-Jun-23 11:55N 58°52' E 009°25'0 0.0
2017-Jun-23 11:25N 58°52' E 009°25'0 0.0
2017-Jun-23 10:55N 58°52' E 009°25'0 0.0
2017-Jun-23 10:25N 58°52' E 009°25'0 0.0
2017-Jun-23 09:55N 58°52' E 009°25'0 0.0
2017-Jun-23 09:25N 58°52' E 009°25'0 0.0
2017-Jun-23 08:55N 58°52' E 009°25'0 0.0
2017-Jun-23 08:19N 58°52' E 009°25'0 0.0
2017-Jun-23 07:55N 58°52' E 009°25'0 0.0
2017-Jun-23 07:25N 58°52' E 009°25'0 0.0
2017-Jun-23 06:55N 58°52' E 009°25'0 0.0
2017-Jun-23 06:25N 58°52' E 009°25'0 0.0
2017-Jun-23 05:55N 58°52' E 009°25'0 0.0
2017-Jun-23 05:25N 58°52' E 009°25'0 0.0
2017-Jun-23 04:49N 58°52' E 009°25'0 0.0
2017-Jun-23 04:25N 58°52' E 009°25'0 0.0
2017-Jun-23 03:55N 58°52' E 009°25'0 0.0
2017-Jun-23 03:28N 58°52' E 009°25'0 0.0
2017-Jun-23 02:58N 58°52' E 009°25'0 0.0
2017-Jun-23 02:19N 58°52' E 009°25'0 0.0
2017-Jun-23 01:55N 58°52' E 009°25'0 0.0
2017-Jun-23 01:25N 58°52' E 009°25'0 0.0
2017-Jun-23 00:55N 58°52' E 009°25'0 0.0
2017-Jun-23 00:19N 58°52' E 009°25'0 0.0
2017-Jun-22 23:55N 58°52' E 009°25'0 0.0
2017-Jun-22 23:25N 58°52' E 009°25'0 0.0
2017-Jun-22 22:55N 58°52' E 009°25'0 0.0
2017-Jun-22 22:25N 58°52' E 009°25'0 0.0
2017-Jun-22 21:55N 58°52' E 009°25'0 0.0
2017-Jun-22 21:19N 58°52' E 009°25'0 0.0
2017-Jun-22 20:43N 58°52' E 009°25'0 0.0
2017-Jun-22 20:28N 58°52' E 009°25'0 0.0
2017-Jun-22 19:58N 58°52' E 009°25'0 0.0
2017-Jun-22 19:28N 58°52' E 009°25'0 0.0
2017-Jun-22 18:58N 58°52' E 009°25'0 0.0
2017-Jun-22 18:25N 58°52' E 009°25'0 0.0
2017-Jun-22 17:49N 58°52' E 009°25'0 0.0
2017-Jun-22 17:25N 58°52' E 009°25'0 0.0
2017-Jun-22 16:55N 58°52' E 009°25'0 0.0
2017-Jun-22 16:25N 58°52' E 009°25'0 0.0
2017-Jun-22 15:55N 58°52' E 009°25'0 0.0
2017-Jun-22 15:25N 58°52' E 009°25'0 0.0
2017-Jun-22 14:55N 58°52' E 009°25'0 0.0
2017-Jun-22 13:55N 58°52' E 009°25'0 0.8
2017-Jun-22 13:30N 58°52' E 009°25'4 7.8
2017-Jun-22 13:00N 58°49' E 009°30'4 8.3
2017-Jun-22 12:30N 58°48' E 009°38'3 5.8
2017-Jun-22 12:00N 58°46' E 009°43'0 0.9
2017-Jun-22 11:28N 58°46' E 009°44'1 1.3
2017-Jun-22 11:00N 58°46' E 009°44'1 1.4
2017-Jun-22 10:29N 58°45' E 009°43'1 1.4
2017-Jun-22 10:00N 58°44' E 009°44'1 1.3
2017-Jun-22 09:28N 58°44' E 009°43'1 1.3
2017-Jun-22 08:58N 58°43' E 009°43'1 1.3
2017-Jun-22 08:29N 58°42' E 009°43'6 1.0
2017-Jun-22 01:46N 58°44' E 009°30'2 8.4
2017-Jun-22 01:29N 58°46' E 009°30'4 8.3
2017-Jun-22 00:59N 58°50' E 009°28'2 4.6
2017-Jun-22 00:28N 58°52' E 009°25'0 0.0
2017-Jun-21 23:55N 58°52' E 009°25'0 0.0
2017-Jun-21 23:25N 58°52' E 009°25'0 0.0
2017-Jun-21 22:49N 58°52' E 009°25'0 0.0
2017-Jun-21 22:22N 58°52' E 009°25'0 0.0
2017-Jun-21 21:55N 58°52' E 009°25'0 0.0
2017-Jun-21 21:25N 58°52' E 009°25'0 0.0
2017-Jun-21 20:55N 58°52' E 009°25'0 0.0
2017-Jun-21 20:13N 58°52' E 009°25'0 0.0
2017-Jun-21 19:58N 58°52' E 009°25'0 0.0
2017-Jun-21 19:19N 58°52' E 009°25'0 0.0
2017-Jun-21 18:49N 58°52' E 009°25'0 0.0
2017-Jun-21 18:25N 58°52' E 009°25'0 0.0
2017-Jun-21 17:55N 58°52' E 009°25'0 0.0
2017-Jun-21 17:19N 58°52' E 009°25'0 0.0
2017-Jun-21 16:55N 58°52' E 009°25'0 0.0
2017-Jun-21 16:19N 58°52' E 009°25'0 0.0
2017-Jun-21 15:49N 58°52' E 009°25'0 0.0
2017-Jun-21 15:25N 58°52' E 009°25'0 0.0
2017-Jun-21 14:55N 58°52' E 009°25'0 0.0
2017-Jun-21 14:25N 58°52' E 009°25'13 4.9
2017-Jun-21 11:39N 58°52' E 009°51'1 0.8
2017-Jun-21 11:00N 58°52' E 009°50'  
Track history (hours):
 
Tides and Currents Weather Stations Pressure Air Temp Water Temp Dewpoint Dewpoint Depression Visibility Wind Speed Wind Dir Waves Ship Positions

Risoy

Last reported at 2017-Jun-29 15:59 UTC. Time now 2017-Jun-29 16:09 UTC.
Position N 58°52' E 009°25'.

Length 14 m.

Type: Fishing. MMSI: 257308740.

Date/timePositionNaut miles runAvg speedWind from/ knotsBaromVisibWave heightAir tempDewpointWater temp
2017-Jun-29 15:59N 58°52' E 009°25'0 0.0
2017-Jun-29 15:05N 58°52' E 009°25'0 0.0
2017-Jun-29 14:59N 58°52' E 009°25'0 0.0
2017-Jun-29 14:05N 58°52' E 009°25'0 0.0
2017-Jun-29 13:29N 58°52' E 009°25'0 0.0
2017-Jun-29 12:59N 58°52' E 009°25'0 0.0
2017-Jun-29 12:29N 58°52' E 009°25'0 0.0
2017-Jun-29 10:47N 58°52' E 009°25'0 0.0
2017-Jun-29 10:11N 58°52' E 009°25'0 0.0
2017-Jun-29 09:59N 58°52' E 009°25'0 0.0
2017-Jun-29 09:29N 58°52' E 009°25'0 0.0
2017-Jun-29 08:59N 58°52' E 009°25'0 0.0
2017-Jun-29 08:23N 58°52' E 009°25'0 0.0
2017-Jun-29 07:53N 58°52' E 009°25'0 0.0
2017-Jun-29 07:23N 58°52' E 009°25'0 0.0
2017-Jun-29 06:59N 58°52' E 009°25'0 0.0
2017-Jun-29 06:29N 58°52' E 009°25'0 0.0
2017-Jun-29 05:57N 58°52' E 009°25'0 0.0
2017-Jun-29 05:15N 58°52' E 009°25'0 0.0
2017-Jun-29 04:57N 58°52' E 009°25'0 0.0
2017-Jun-29 04:27N 58°52' E 009°25'0 0.0
2017-Jun-29 03:51N 58°52' E 009°25'0 0.0
2017-Jun-29 03:27N 58°52' E 009°25'0 0.0
2017-Jun-29 03:00N 58°52' E 009°25'0 0.0
2017-Jun-29 02:27N 58°52' E 009°25'0 0.0
2017-Jun-29 01:57N 58°52' E 009°25'0 0.0
2017-Jun-29 01:27N 58°52' E 009°25'0 0.0
2017-Jun-29 00:51N 58°52' E 009°25'0 0.0
2017-Jun-29 00:30N 58°52' E 009°25'0 0.0
2017-Jun-28 23:57N 58°52' E 009°25'0 0.0
2017-Jun-28 23:27N 58°52' E 009°25'0 0.0
2017-Jun-28 22:51N 58°52' E 009°25'0 0.0
2017-Jun-28 22:27N 58°52' E 009°25'0 0.0
2017-Jun-28 21:57N 58°52' E 009°25'0 0.0
2017-Jun-28 21:27N 58°52' E 009°25'0 0.0
2017-Jun-28 20:57N 58°52' E 009°25'0 0.0
2017-Jun-28 20:21N 58°52' E 009°25'0 0.0
2017-Jun-28 19:57N 58°52' E 009°25'0 0.0
2017-Jun-28 19:21N 58°52' E 009°25'0 0.0
2017-Jun-28 18:57N 58°52' E 009°25'0 0.0
2017-Jun-28 18:27N 58°52' E 009°25'0 0.0
2017-Jun-28 17:57N 58°52' E 009°25'0 0.0
2017-Jun-28 17:30N 58°52' E 009°25'0 0.0
2017-Jun-28 16:57N 58°52' E 009°25'0 0.0
2017-Jun-28 16:30N 58°52' E 009°25'0 0.0
2017-Jun-28 15:54N 58°52' E 009°25'0 0.0
2017-Jun-28 15:27N 58°52' E 009°25'0 0.0
2017-Jun-28 14:54N 58°52' E 009°25'0 0.0
2017-Jun-28 13:57N 58°52' E 009°25'1 1.3
2017-Jun-28 13:29N 58°52' E 009°26'4 8.0
2017-Jun-28 13:00N 58°49' E 009°31'4 9.1
2017-Jun-28 12:31N 58°49' E 009°40'3 6.4
2017-Jun-28 12:00N 58°49' E 009°46'0 0.6
2017-Jun-28 11:30N 58°49' E 009°47'0 0.8
2017-Jun-28 11:00N 58°49' E 009°47'1 1.3
2017-Jun-28 10:30N 58°50' E 009°48'1 1.5
2017-Jun-28 09:59N 58°50' E 009°49'0 0.6
2017-Jun-28 09:28N 58°51' E 009°48'1 1.7
2017-Jun-28 09:00N 58°50' E 009°48'1 1.9
2017-Jun-28 08:29N 58°49' E 009°47'1 1.9
2017-Jun-28 08:00N 58°48' E 009°46'1 1.7
2017-Jun-28 07:29N 58°48' E 009°44'1 1.7
2017-Jun-28 07:00N 58°47' E 009°44'1 1.7
2017-Jun-28 06:29N 58°46' E 009°43'1 1.6
2017-Jun-28 05:58N 58°45' E 009°43'1 1.5
2017-Jun-28 05:30N 58°45' E 009°43'1 1.6
2017-Jun-28 05:00N 58°44' E 009°42'1 1.6
2017-Jun-28 04:28N 58°43' E 009°41'1 1.5
2017-Jun-28 03:58N 58°43' E 009°40'1 1.5
2017-Jun-28 03:28N 58°42' E 009°39'1 1.6
2017-Jun-28 02:59N 58°42' E 009°38'1 2.1
2017-Jun-28 02:29N 58°41' E 009°36'2 4.8
2017-Jun-28 01:59N 58°43' E 009°34'4 7.6
2017-Jun-28 01:31N 58°46' E 009°31'4 8.0
2017-Jun-28 01:00N 58°50' E 009°28'3 3.5
2017-Jun-28 00:18N 58°52' E 009°25'0 0.0
2017-Jun-28 00:00N 58°52' E 009°25'0 0.0
2017-Jun-27 23:30N 58°52' E 009°25'0 0.0
2017-Jun-27 23:00N 58°52' E 009°25'0 0.0
2017-Jun-27 22:30N 58°52' E 009°25'0 0.0
2017-Jun-27 21:57N 58°52' E 009°25'0 0.0
2017-Jun-27 21:30N 58°52' E 009°25'0 0.0
2017-Jun-27 20:54N 58°52' E 009°25'0 0.0
2017-Jun-27 20:27N 58°52' E 009°25'0 0.0
2017-Jun-27 20:00N 58°52' E 009°25'0 0.0
2017-Jun-27 19:30N 58°52' E 009°25'0 0.0
2017-Jun-27 18:57N 58°52' E 009°25'0 0.0
2017-Jun-27 18:30N 58°52' E 009°25'0 0.0
2017-Jun-27 17:54N 58°52' E 009°25'0 0.0
2017-Jun-27 17:30N 58°52' E 009°25'0 0.0
2017-Jun-27 16:54N 58°52' E 009°25'0 0.0
2017-Jun-27 16:24N 58°52' E 009°25'0 0.0
2017-Jun-27 16:00N 58°52' E 009°25'0 0.0
2017-Jun-27 15:30N 58°52' E 009°25'0 0.0
2017-Jun-27 15:00N 58°52' E 009°25'0 0.0
2017-Jun-27 13:26N 58°52' E 009°25'3 7.6
2017-Jun-27 13:00N 58°50' E 009°29'4 8.2
2017-Jun-27 12:30N 58°47' E 009°35'4 8.2
2017-Jun-27 11:59N 58°44' E 009°42'1 1.2
2017-Jun-27 11:28N 58°45' E 009°43'0 0.6
2017-Jun-27 11:00N 58°45' E 009°43'10 0.3
2017-Jun-26 04:37N 58°51' E 009°27'0 2.4
2017-Jun-26 04:30N 58°51' E 009°26'1 2.2
2017-Jun-26 03:55N 58°52' E 009°25'0 0.0
2017-Jun-26 03:19N 58°52' E 009°25'0 0.0
2017-Jun-26 02:55N 58°52' E 009°25'0 0.0
2017-Jun-26 02:25N 58°52' E 009°25'0 0.0
2017-Jun-26 01:55N 58°52' E 009°25'0 0.0
2017-Jun-26 01:19N 58°52' E 009°25'0 0.0
2017-Jun-26 00:55N 58°52' E 009°25'0 0.0
2017-Jun-26 00:25N 58°52' E 009°25'0 0.0
2017-Jun-25 23:55N 58°52' E 009°25'0 0.0
2017-Jun-25 23:25N 58°52' E 009°25'0 0.0
2017-Jun-25 22:55N 58°52' E 009°25'0 0.0
2017-Jun-25 22:19N 58°52' E 009°25'0 0.0
2017-Jun-25 21:55N 58°52' E 009°25'0 0.0
2017-Jun-25 21:25N 58°52' E 009°25'0 0.0
2017-Jun-25 20:55N 58°52' E 009°25'0 0.0
2017-Jun-25 20:19N 58°52' E 009°25'0 0.0
2017-Jun-25 19:55N 58°52' E 009°25'0 0.0
2017-Jun-25 19:07N 58°52' E 009°25'0 0.0
2017-Jun-25 18:55N 58°52' E 009°25'0 0.0
2017-Jun-25 18:25N 58°52' E 009°25'0 0.0
2017-Jun-25 17:52N 58°52' E 009°25'0 0.0
2017-Jun-25 17:25N 58°52' E 009°25'0 0.0
2017-Jun-25 16:55N 58°52' E 009°25'0 0.0
2017-Jun-25 16:13N 58°52' E 009°25'0 0.0
2017-Jun-25 15:55N 58°52' E 009°25'0 0.0
2017-Jun-25 15:25N 58°52' E 009°25'0 0.0
2017-Jun-25 14:55N 58°52' E 009°25'0 0.0
2017-Jun-25 13:55N 58°52' E 009°25'0 0.0
2017-Jun-25 13:28N 58°52' E 009°25'0 0.0
2017-Jun-25 12:55N 58°52' E 009°25'0 0.0
2017-Jun-25 12:10N 58°52' E 009°25'0 0.0
2017-Jun-25 11:49N 58°52' E 009°25'0 0.0
2017-Jun-25 11:25N 58°52' E 009°25'0 0.0
2017-Jun-25 10:55N 58°52' E 009°25'0 0.0
2017-Jun-25 10:25N 58°52' E 009°25'0 0.0
2017-Jun-25 09:55N 58°52' E 009°25'0 0.0
2017-Jun-25 09:25N 58°52' E 009°25'0 0.0
2017-Jun-25 08:55N 58°52' E 009°25'0 0.0
2017-Jun-25 08:25N 58°52' E 009°25'0 0.0
2017-Jun-25 07:55N 58°52' E 009°25'0 0.0
2017-Jun-25 07:19N 58°52' E 009°25'0 0.0
2017-Jun-25 06:55N 58°52' E 009°25'0 0.0
2017-Jun-25 06:25N 58°52' E 009°25'0 0.0
2017-Jun-25 05:55N 58°52' E 009°25'0 0.0
2017-Jun-25 05:25N 58°52' E 009°25'0 0.0
2017-Jun-25 04:55N 58°52' E 009°25'0 0.0
2017-Jun-25 04:25N 58°52' E 009°25'0 0.0
2017-Jun-25 03:49N 58°52' E 009°25'0 0.0
2017-Jun-25 03:25N 58°52' E 009°25'0 0.0
2017-Jun-25 02:49N 58°52' E 009°25'0 0.0
2017-Jun-25 02:25N 58°52' E 009°25'0 0.0
2017-Jun-25 01:55N 58°52' E 009°25'0 0.0
2017-Jun-25 01:25N 58°52' E 009°25'0 0.0
2017-Jun-25 00:49N 58°52' E 009°25'0 0.0
2017-Jun-25 00:25N 58°52' E 009°25'0 0.0
2017-Jun-24 23:55N 58°52' E 009°25'0 0.0
2017-Jun-24 23:25N 58°52' E 009°25'0 0.0
2017-Jun-24 22:55N 58°52' E 009°25'0 0.0
2017-Jun-24 21:43N 58°52' E 009°25'0 0.0
2017-Jun-24 21:25N 58°52' E 009°25'0 0.0
2017-Jun-24 20:58N 58°52' E 009°25'0 0.0
2017-Jun-24 20:28N 58°52' E 009°25'0 0.0
2017-Jun-24 19:58N 58°52' E 009°25'0 0.0
2017-Jun-24 19:28N 58°52' E 009°25'0 0.0
2017-Jun-24 18:58N 58°52' E 009°25'0 0.0
2017-Jun-24 18:25N 58°52' E 009°25'0 0.0
2017-Jun-24 17:58N 58°52' E 009°25'0 0.0
2017-Jun-24 17:28N 58°52' E 009°25'0 0.0
2017-Jun-24 16:58N 58°52' E 009°25'0 0.0
2017-Jun-24 16:28N 58°52' E 009°25'0 0.0
2017-Jun-24 15:58N 58°52' E 009°25'0 0.0
2017-Jun-24 15:28N 58°52' E 009°25'0 0.0
2017-Jun-24 14:55N 58°52' E 009°25'0 0.0
2017-Jun-24 13:55N 58°52' E 009°25'0 0.0
2017-Jun-24 13:28N 58°52' E 009°25'0 0.0
2017-Jun-24 12:55N 58°52' E 009°25'0 0.0
2017-Jun-24 12:28N 58°52' E 009°25'0 0.0
2017-Jun-24 11:55N 58°52' E 009°25'0 0.0
2017-Jun-24 11:25N 58°52' E 009°25'0 0.0
2017-Jun-24 10:58N 58°52' E 009°25'0 0.0
2017-Jun-24 10:28N 58°52' E 009°25'0 0.0
2017-Jun-24 09:55N 58°52' E 009°25'0 0.0
2017-Jun-24 09:25N 58°52' E 009°25'0 0.0
2017-Jun-24 08:49N 58°52' E 009°25'0 0.0
2017-Jun-24 08:25N 58°52' E 009°25'0 0.0
2017-Jun-24 07:55N 58°52' E 009°25'0 0.0
2017-Jun-24 07:25N 58°52' E 009°25'0 0.0
2017-Jun-24 06:55N 58°52' E 009°25'0 0.0
2017-Jun-24 06:19N 58°52' E 009°25'0 0.0
2017-Jun-24 05:55N 58°52' E 009°25'0 0.0
2017-Jun-24 05:25N 58°52' E 009°25'0 0.0
2017-Jun-24 04:49N 58°52' E 009°25'0 0.0
2017-Jun-24 04:25N 58°52' E 009°25'0 0.0
2017-Jun-24 03:49N 58°52' E 009°25'0 0.0
2017-Jun-24 03:25N 58°52' E 009°25'0 0.0
2017-Jun-24 02:55N 58°52' E 009°25'0 0.0
2017-Jun-24 02:25N 58°52' E 009°25'0 0.0
2017-Jun-24 01:55N 58°52' E 009°25'0 0.0
2017-Jun-24 01:25N 58°52' E 009°25'0 0.0
2017-Jun-24 00:55N 58°52' E 009°25'0 0.0
2017-Jun-24 00:25N 58°52' E 009°25'0 0.0
2017-Jun-23 23:55N 58°52' E 009°25'0 0.0
2017-Jun-23 23:25N 58°52' E 009°25'0 0.0
2017-Jun-23 22:37N 58°52' E 009°25'0 0.0
2017-Jun-23 22:25N 58°52' E 009°25'0 0.0
2017-Jun-23 21:55N 58°52' E 009°25'0 0.0
2017-Jun-23 21:25N 58°52' E 009°25'0 0.0
2017-Jun-23 20:55N 58°52' E 009°25'0 0.0
2017-Jun-23 20:25N 58°52' E 009°25'0 0.0
2017-Jun-23 19:37N 58°52' E 009°25'0 0.0
2017-Jun-23 19:25N 58°52' E 009°25'0 0.0
2017-Jun-23 18:55N 58°52' E 009°25'0 0.0
2017-Jun-23 18:25N 58°52' E 009°25'0 0.0
2017-Jun-23 17:55N 58°52' E 009°25'0 0.0
2017-Jun-23 17:25N 58°52' E 009°25'0 0.0
2017-Jun-23 16:58N 58°52' E 009°25'0 0.0
2017-Jun-23 16:28N 58°52' E 009°25'0 0.0
2017-Jun-23 15:49N 58°52' E 009°25'0 0.0
2017-Jun-23 15:07N 58°52' E 009°25'0 0.0
2017-Jun-23 14:55N 58°52' E 009°25'0 0.0
2017-Jun-23 14:25N 58°52' E 009°25'0 0.0
2017-Jun-23 13:19N 58°52' E 009°25'0 0.0
2017-Jun-23 12:55N 58°52' E 009°25'0 0.0
2017-Jun-23 12:19N 58°52' E 009°25'0 0.0
2017-Jun-23 11:55N 58°52' E 009°25'0 0.0
2017-Jun-23 11:25N 58°52' E 009°25'0 0.0
2017-Jun-23 10:55N 58°52' E 009°25'0 0.0
2017-Jun-23 10:25N 58°52' E 009°25'0 0.0
2017-Jun-23 09:55N 58°52' E 009°25'0 0.0
2017-Jun-23 09:25N 58°52' E 009°25'0 0.0
2017-Jun-23 08:55N 58°52' E 009°25'0 0.0
2017-Jun-23 08:19N 58°52' E 009°25'0 0.0
2017-Jun-23 07:55N 58°52' E 009°25'0 0.0
2017-Jun-23 07:25N 58°52' E 009°25'0 0.0
2017-Jun-23 06:55N 58°52' E 009°25'0 0.0
2017-Jun-23 06:25N 58°52' E 009°25'0 0.0
2017-Jun-23 05:55N 58°52' E 009°25'0 0.0
2017-Jun-23 05:25N 58°52' E 009°25'0 0.0
2017-Jun-23 04:49N 58°52' E 009°25'0 0.0
2017-Jun-23 04:25N 58°52' E 009°25'0 0.0
2017-Jun-23 03:55N 58°52' E 009°25'0 0.0
2017-Jun-23 03:28N 58°52' E 009°25'0 0.0
2017-Jun-23 02:58N 58°52' E 009°25'0 0.0
2017-Jun-23 02:19N 58°52' E 009°25'0 0.0
2017-Jun-23 01:55N 58°52' E 009°25'0 0.0
2017-Jun-23 01:25N 58°52' E 009°25'0 0.0
2017-Jun-23 00:55N 58°52' E 009°25'0 0.0
2017-Jun-23 00:19N 58°52' E 009°25'0 0.0
2017-Jun-22 23:55N 58°52' E 009°25'0 0.0
2017-Jun-22 23:25N 58°52' E 009°25'0 0.0
2017-Jun-22 22:55N 58°52' E 009°25'0 0.0
2017-Jun-22 22:25N 58°52' E 009°25'0 0.0
2017-Jun-22 21:55N 58°52' E 009°25'0 0.0
2017-Jun-22 21:19N 58°52' E 009°25'0 0.0
2017-Jun-22 20:43N 58°52' E 009°25'0 0.0
2017-Jun-22 20:28N 58°52' E 009°25'0 0.0
2017-Jun-22 19:58N 58°52' E 009°25'0 0.0
2017-Jun-22 19:28N 58°52' E 009°25'0 0.0
2017-Jun-22 18:58N 58°52' E 009°25'0 0.0
2017-Jun-22 18:25N 58°52' E 009°25'0 0.0
2017-Jun-22 17:49N 58°52' E 009°25'0 0.0
2017-Jun-22 17:25N 58°52' E 009°25'0 0.0
2017-Jun-22 16:55N 58°52' E 009°25'0 0.0
2017-Jun-22 16:25N 58°52' E 009°25'0 0.0
2017-Jun-22 15:55N 58°52' E 009°25'0 0.0
2017-Jun-22 15:25N 58°52' E 009°25'0 0.0
2017-Jun-22 14:55N 58°52' E 009°25'0 0.0
2017-Jun-22 13:55N 58°52' E 009°25'0 0.8
2017-Jun-22 13:30N 58°52' E 009°25'4 7.8
2017-Jun-22 13:00N 58°49' E 009°30'4 8.3
2017-Jun-22 12:30N 58°48' E 009°38'3 5.8
2017-Jun-22 12:00N 58°46' E 009°43'0 0.9
2017-Jun-22 11:28N 58°46' E 009°44'1 1.3
2017-Jun-22 11:00N 58°46' E 009°44'1 1.4
2017-Jun-22 10:29N 58°45' E 009°43'1 1.4
2017-Jun-22 10:00N 58°44' E 009°44'1 1.3
2017-Jun-22 09:28N 58°44' E 009°43'1 1.3
2017-Jun-22 08:58N 58°43' E 009°43'1 1.3
2017-Jun-22 08:29N 58°42' E 009°43'6 1.0
2017-Jun-22 01:46N 58°44' E 009°30'2 8.4
2017-Jun-22 01:29N 58°46' E 009°30'4 8.3
2017-Jun-22 00:59N 58°50' E 009°28'2 4.6
2017-Jun-22 00:28N 58°52' E 009°25'0 0.0
2017-Jun-21 23:55N 58°52' E 009°25'0 0.0
2017-Jun-21 23:25N 58°52' E 009°25'0 0.0
2017-Jun-21 22:49N 58°52' E 009°25'0 0.0
2017-Jun-21 22:22N 58°52' E 009°25'0 0.0
2017-Jun-21 21:55N 58°52' E 009°25'0 0.0
2017-Jun-21 21:25N 58°52' E 009°25'0 0.0
2017-Jun-21 20:55N 58°52' E 009°25'0 0.0
2017-Jun-21 20:13N 58°52' E 009°25'0 0.0
2017-Jun-21 19:58N 58°52' E 009°25'0 0.0
2017-Jun-21 19:19N 58°52' E 009°25'0 0.0
2017-Jun-21 18:49N 58°52' E 009°25'0 0.0
2017-Jun-21 18:25N 58°52' E 009°25'0 0.0
2017-Jun-21 17:55N 58°52' E 009°25'0 0.0
2017-Jun-21 17:19N 58°52' E 009°25'0 0.0
2017-Jun-21 16:55N 58°52' E 009°25'0 0.0
2017-Jun-21 16:19N 58°52' E 009°25'0 0.0
2017-Jun-21 15:49N 58°52' E 009°25'0 0.0
2017-Jun-21 15:25N 58°52' E 009°25'0 0.0
2017-Jun-21 14:55N 58°52' E 009°25'0 0.0
2017-Jun-21 14:25N 58°52' E 009°25'13 4.9
2017-Jun-21 11:39N 58°52' E 009°51'1 0.8
2017-Jun-21 11:00N 58°52' E 009°50'  

Dump ship's entire track history